sensor_id;sensor_type;location;lat;lon;timestamp;pressure;altitude;pressure_sealevel;temperature;humidity
73338;BME280;61575;49.908;35.556;2024-03-02T00:01:28;100009.88;;;-0.89;82.46
73338;BME280;61575;49.908;35.556;2024-03-02T00:04:30;100019.50;;;-0.88;82.00
73338;BME280;61575;49.908;35.556;2024-03-02T00:07:33;100024.94;;;-0.91;82.21
73338;BME280;61575;49.908;35.556;2024-03-02T00:10:39;100020.59;;;-0.92;82.14
73338;BME280;61575;49.908;35.556;2024-03-02T00:13:42;100021.53;;;-0.93;82.28
73338;BME280;61575;49.908;35.556;2024-03-02T00:16:44;100017.47;;;-0.99;82.56
73338;BME280;61575;49.908;35.556;2024-03-02T00:19:46;100008.19;;;-1.06;83.15
73338;BME280;61575;49.908;35.556;2024-03-02T00:22:49;100012.69;;;-1.08;83.58
73338;BME280;61575;49.908;35.556;2024-03-02T00:25:54;100014.47;;;-1.08;83.50
73338;BME280;61575;49.908;35.556;2024-03-02T00:28:56;100007.50;;;-1.10;83.78
73338;BME280;61575;49.908;35.556;2024-03-02T00:32:00;100006.69;;;-1.10;84.07
73338;BME280;61575;49.908;35.556;2024-03-02T00:35:04;100008.34;;;-1.09;84.09
73338;BME280;61575;49.908;35.556;2024-03-02T00:38:07;100007.63;;;-1.11;84.31
73338;BME280;61575;49.908;35.556;2024-03-02T00:41:16;100000.56;;;-1.11;84.04
73338;BME280;61575;49.908;35.556;2024-03-02T00:44:22;100001.59;;;-1.13;84.12
73338;BME280;61575;49.908;35.556;2024-03-02T00:47:26;99998.09;;;-1.14;83.81
73338;BME280;61575;49.908;35.556;2024-03-02T00:50:29;99995.47;;;-1.14;83.97
73338;BME280;61575;49.908;35.556;2024-03-02T00:53:32;99988.75;;;-1.19;84.30
73338;BME280;61575;49.908;35.556;2024-03-02T00:56:36;99988.16;;;-1.24;84.71
73338;BME280;61575;49.908;35.556;2024-03-02T00:59:38;99994.34;;;-1.25;84.46
73338;BME280;61575;49.908;35.556;2024-03-02T01:02:40;99996.22;;;-1.27;84.59
73338;BME280;61575;49.908;35.556;2024-03-02T01:05:43;100001.66;;;-1.30;84.53
73338;BME280;61575;49.908;35.556;2024-03-02T01:08:45;99992.22;;;-1.34;84.92
73338;BME280;61575;49.908;35.556;2024-03-02T01:11:52;99989.75;;;-1.37;85.23
73338;BME280;61575;49.908;35.556;2024-03-02T01:14:54;99988.22;;;-1.41;85.76
73338;BME280;61575;49.908;35.556;2024-03-02T01:17:56;99993.47;;;-1.41;85.25
73338;BME280;61575;49.908;35.556;2024-03-02T01:20:58;99988.22;;;-1.41;85.60
73338;BME280;61575;49.908;35.556;2024-03-02T01:24:00;99994.75;;;-1.49;86.25
73338;BME280;61575;49.908;35.556;2024-03-02T01:27:02;99994.59;;;-1.46;86.42
73338;BME280;61575;49.908;35.556;2024-03-02T01:30:05;99996.13;;;-1.41;86.43
73338;BME280;61575;49.908;35.556;2024-03-02T01:33:07;100000.44;;;-1.40;86.75
73338;BME280;61575;49.908;35.556;2024-03-02T01:36:09;100006.56;;;-1.40;86.28
73338;BME280;61575;49.908;35.556;2024-03-02T01:39:11;100007.59;;;-1.42;85.79
73338;BME280;61575;49.908;35.556;2024-03-02T01:42:13;100002.47;;;-1.46;86.33
73338;BME280;61575;49.908;35.556;2024-03-02T01:45:15;100005.28;;;-1.49;86.24
73338;BME280;61575;49.908;35.556;2024-03-02T01:48:17;100004.44;;;-1.49;86.36
73338;BME280;61575;49.908;35.556;2024-03-02T01:51:21;100013.25;;;-1.50;86.57
73338;BME280;61575;49.908;35.556;2024-03-02T01:54:23;100008.06;;;-1.52;86.53
73338;BME280;61575;49.908;35.556;2024-03-02T01:57:25;100009.09;;;-1.54;86.43
73338;BME280;61575;49.908;35.556;2024-03-02T02:00:27;99999.56;;;-1.57;86.66
73338;BME280;61575;49.908;35.556;2024-03-02T02:03:29;100004.84;;;-1.57;86.85
73338;BME280;61575;49.908;35.556;2024-03-02T02:06:32;100009.09;;;-1.54;87.02
73338;BME280;61575;49.908;35.556;2024-03-02T02:09:34;100006.69;;;-1.59;86.70
73338;BME280;61575;49.908;35.556;2024-03-02T02:12:36;100008.66;;;-1.62;87.00
73338;BME280;61575;49.908;35.556;2024-03-02T02:15:38;100003.53;;;-1.65;86.76
73338;BME280;61575;49.908;35.556;2024-03-02T02:18:40;100005.66;;;-1.72;87.48
73338;BME280;61575;49.908;35.556;2024-03-02T02:21:43;100008.28;;;-1.72;87.57
73338;BME280;61575;49.908;35.556;2024-03-02T02:24:46;100010.91;;;-1.72;87.15
73338;BME280;61575;49.908;35.556;2024-03-02T02:27:48;99997.91;;;-1.75;87.43
73338;BME280;61575;49.908;35.556;2024-03-02T02:30:50;99992.66;;;-1.75;87.43
73338;BME280;61575;49.908;35.556;2024-03-02T02:33:52;99990.25;;;-1.80;87.08
73338;BME280;61575;49.908;35.556;2024-03-02T02:36:54;99994.75;;;-1.82;87.21
73338;BME280;61575;49.908;35.556;2024-03-02T02:39:56;100000.88;;;-1.81;87.51
73338;BME280;61575;49.908;35.556;2024-03-02T02:42:58;99997.53;;;-1.85;87.12
73338;BME280;61575;49.908;35.556;2024-03-02T02:46:03;100008.00;;;-1.83;87.59
73338;BME280;61575;49.908;35.556;2024-03-02T02:49:05;100001.94;;;-1.85;87.91
73338;BME280;61575;49.908;35.556;2024-03-02T02:52:07;100003.81;;;-1.87;88.00
73338;BME280;61575;49.908;35.556;2024-03-02T02:55:11;99998.63;;;-1.89;88.02
73338;BME280;61575;49.908;35.556;2024-03-02T02:58:13;99996.06;;;-1.90;87.82
73338;BME280;61575;49.908;35.556;2024-03-02T03:01:16;99992.75;;;-1.94;88.40
73338;BME280;61575;49.908;35.556;2024-03-02T03:04:21;99997.16;;;-1.94;88.19
73338;BME280;61575;49.908;35.556;2024-03-02T03:07:23;100002.44;;;-1.94;88.78
73338;BME280;61575;49.908;35.556;2024-03-02T03:10:25;99998.78;;;-1.92;88.98
73338;BME280;61575;49.908;35.556;2024-03-02T03:13:29;99999.78;;;-1.94;88.89
73338;BME280;61575;49.908;35.556;2024-03-02T03:16:31;99998.88;;;-1.93;89.32
73338;BME280;61575;49.908;35.556;2024-03-02T03:19:33;100001.56;;;-1.95;89.00
73338;BME280;61575;49.908;35.556;2024-03-02T03:22:38;99995.63;;;-1.98;88.85
73338;BME280;61575;49.908;35.556;2024-03-02T03:25:41;99996.72;;;-2.02;88.57
73338;BME280;61575;49.908;35.556;2024-03-02T03:28:43;99995.00;;;-2.03;88.75
73338;BME280;61575;49.908;35.556;2024-03-02T03:31:46;99991.69;;;-2.07;88.69
73338;BME280;61575;49.908;35.556;2024-03-02T03:34:48;99996.25;;;-2.11;88.43
73338;BME280;61575;49.908;35.556;2024-03-02T03:37:50;100000.75;;;-2.13;88.50
73338;BME280;61575;49.908;35.556;2024-03-02T03:40:52;99997.25;;;-2.13;88.56
73338;BME280;61575;49.908;35.556;2024-03-02T03:43:54;99999.91;;;-2.13;88.74
73338;BME280;61575;49.908;35.556;2024-03-02T03:46:56;99997.25;;;-2.13;88.81
73338;BME280;61575;49.908;35.556;2024-03-02T03:49:58;99998.13;;;-2.13;88.75
73338;BME280;61575;49.908;35.556;2024-03-02T03:53:00;100003.38;;;-2.13;88.47
73338;BME280;61575;49.908;35.556;2024-03-02T03:56:02;99999.03;;;-2.14;88.43
73338;BME280;61575;49.908;35.556;2024-03-02T03:59:04;100000.19;;;-2.19;88.30
73338;BME280;61575;49.908;35.556;2024-03-02T04:02:06;99998.50;;;-2.20;88.34
73338;BME280;61575;49.908;35.556;2024-03-02T04:05:09;99994.09;;;-2.20;88.27
73338;BME280;61575;49.908;35.556;2024-03-02T04:08:13;99995.09;;;-2.22;88.19
73338;BME280;61575;49.908;35.556;2024-03-02T04:11:15;99990.84;;;-2.25;88.10
73338;BME280;61575;49.908;35.556;2024-03-02T04:14:17;99988.97;;;-2.23;88.17
73338;BME280;61575;49.908;35.556;2024-03-02T04:17:19;99987.34;;;-2.25;88.18
73338;BME280;61575;49.908;35.556;2024-03-02T04:20:21;99998.88;;;-2.28;88.19
73338;BME280;61575;49.908;35.556;2024-03-02T04:23:23;99995.41;;;-2.28;88.07
73338;BME280;61575;49.908;35.556;2024-03-02T04:26:25;99988.38;;;-2.28;88.41
73338;BME280;61575;49.908;35.556;2024-03-02T04:29:27;99984.03;;;-2.29;88.79
73338;BME280;61575;49.908;35.556;2024-03-02T04:32:29;99991.00;;;-2.28;88.57
73338;BME280;61575;49.908;35.556;2024-03-02T04:35:31;99981.31;;;-2.27;88.76
73338;BME280;61575;49.908;35.556;2024-03-02T04:38:33;99983.88;;;-2.26;88.75
73338;BME280;61575;49.908;35.556;2024-03-02T04:41:35;99976.06;;;-2.27;88.63
73338;BME280;61575;49.908;35.556;2024-03-02T04:44:37;99970.09;;;-2.31;88.65
73338;BME280;61575;49.908;35.556;2024-03-02T04:47:39;99969.94;;;-2.28;89.35
73338;BME280;61575;49.908;35.556;2024-03-02T04:50:41;99984.03;;;-2.29;89.22
73338;BME280;61575;49.908;35.556;2024-03-02T04:53:44;99975.38;;;-2.14;89.93
73338;BME280;61575;49.908;35.556;2024-03-02T04:56:46;99975.50;;;-1.99;89.94
73338;BME280;61575;49.908;35.556;2024-03-02T04:59:52;99963.31;;;-1.85;89.52
73338;BME280;61575;49.908;35.556;2024-03-02T05:02:54;99960.59;;;-1.83;89.03
73338;BME280;61575;49.908;35.556;2024-03-02T05:05:56;99960.59;;;-1.83;88.63
73338;BME280;61575;49.908;35.556;2024-03-02T05:08:58;99962.44;;;-1.68;89.33
73338;BME280;61575;49.908;35.556;2024-03-02T05:12:00;99964.56;;;-1.59;89.19
73338;BME280;61575;49.908;35.556;2024-03-02T05:15:19;99958.97;;;-1.53;88.48
73338;BME280;61575;49.908;35.556;2024-03-02T05:18:21;99957.03;;;-1.49;88.83
73338;BME280;61575;49.908;35.556;2024-03-02T05:21:23;99956.84;;;-1.46;89.27
73338;BME280;61575;49.908;35.556;2024-03-02T05:24:25;99959.25;;;-1.41;89.00
73338;BME280;61575;49.908;35.556;2024-03-02T05:27:29;99956.28;;;-1.35;88.70
73338;BME280;61575;49.908;35.556;2024-03-02T05:30:32;99962.06;;;-1.29;88.84
73338;BME280;61575;49.908;35.556;2024-03-02T05:33:34;99952.09;;;-1.24;88.53
73338;BME280;61575;49.908;35.556;2024-03-02T05:36:36;99949.81;;;-1.14;88.85
73338;BME280;61575;49.908;35.556;2024-03-02T05:39:40;99959.63;;;-1.02;88.63
73338;BME280;61575;49.908;35.556;2024-03-02T05:42:42;99950.63;;;-0.98;88.49
73338;BME280;61575;49.908;35.556;2024-03-02T05:45:44;99950.72;;;-0.99;88.49
73338;BME280;61575;49.908;35.556;2024-03-02T05:48:46;99945.00;;;-0.92;88.47
73338;BME280;61575;49.908;35.556;2024-03-02T05:51:48;99948.06;;;-0.84;88.69
73338;BME280;61575;49.908;35.556;2024-03-02T05:54:50;99954.41;;;-0.72;88.97
73338;BME280;61575;49.908;35.556;2024-03-02T05:57:52;99955.66;;;-0.63;88.44
73338;BME280;61575;49.908;35.556;2024-03-02T06:01:14;99939.03;;;-0.50;88.63
73338;BME280;61575;49.908;35.556;2024-03-02T06:04:16;99933.91;;;-0.37;88.19
73338;BME280;61575;49.908;35.556;2024-03-02T06:07:18;99944.00;;;-0.29;87.30
73338;BME280;61575;49.908;35.556;2024-03-02T06:10:20;99943.44;;;-0.20;87.52
73338;BME280;61575;49.908;35.556;2024-03-02T06:13:22;99949.59;;;-0.05;87.65
73338;BME280;61575;49.908;35.556;2024-03-02T06:16:25;99945.09;;;0.11;87.04
73338;BME280;61575;49.908;35.556;2024-03-02T06:19:27;99946.78;;;0.26;86.70
73338;BME280;61575;49.908;35.556;2024-03-02T06:22:29;99951.50;;;0.35;86.31
73338;BME280;61575;49.908;35.556;2024-03-02T06:25:31;99950.94;;;0.44;85.91
73338;BME280;61575;49.908;35.556;2024-03-02T06:28:33;99949.81;;;0.48;85.49
73338;BME280;61575;49.908;35.556;2024-03-02T06:31:35;99949.63;;;0.51;85.08
73338;BME280;61575;49.908;35.556;2024-03-02T06:34:37;99955.47;;;0.57;84.81
73338;BME280;61575;49.908;35.556;2024-03-02T06:37:39;99944.13;;;0.69;84.85
73338;BME280;61575;49.908;35.556;2024-03-02T06:40:41;99940.59;;;0.82;84.27
73338;BME280;61575;49.908;35.556;2024-03-02T06:43:44;99938.56;;;1.00;83.52
73338;BME280;61575;49.908;35.556;2024-03-02T06:46:45;99939.06;;;1.20;83.09
73338;BME280;61575;49.908;35.556;2024-03-02T06:49:47;99932.97;;;1.32;82.65
73338;BME280;61575;49.908;35.556;2024-03-02T06:52:49;99921.44;;;1.33;81.96
73338;BME280;61575;49.908;35.556;2024-03-02T06:55:51;99930.69;;;1.53;81.72
73338;BME280;61575;49.908;35.556;2024-03-02T06:58:53;99927.34;;;1.63;81.09
73338;BME280;61575;49.908;35.556;2024-03-02T07:01:55;99919.00;;;1.95;80.74
73338;BME280;61575;49.908;35.556;2024-03-02T07:04:58;99922.50;;;2.08;79.90
73338;BME280;61575;49.908;35.556;2024-03-02T07:08:00;99920.16;;;2.16;79.27
73338;BME280;61575;49.908;35.556;2024-03-02T07:11:04;99917.19;;;2.33;78.71
73338;BME280;61575;49.908;35.556;2024-03-02T07:14:06;99918.56;;;2.26;77.20
73338;BME280;61575;49.908;35.556;2024-03-02T07:17:08;99902.44;;;2.42;77.75
73338;BME280;61575;49.908;35.556;2024-03-02T07:20:11;99915.19;;;2.73;77.40
73338;BME280;61575;49.908;35.556;2024-03-02T07:23:13;99911.53;;;2.87;76.38
73338;BME280;61575;49.908;35.556;2024-03-02T07:26:16;99910.66;;;2.99;76.33
73338;BME280;61575;49.908;35.556;2024-03-02T07:29:22;99911.94;;;3.18;76.01
73338;BME280;61575;49.908;35.556;2024-03-02T07:32:24;99897.75;;;3.30;75.07
73338;BME280;61575;49.908;35.556;2024-03-02T07:35:26;99892.16;;;3.45;74.92
73338;BME280;61575;49.908;35.556;2024-03-02T07:38:29;99893.72;;;3.48;74.65
73338;BME280;61575;49.908;35.556;2024-03-02T07:41:31;99883.97;;;3.49;73.19
73338;BME280;61575;49.908;35.556;2024-03-02T07:44:34;99888.13;;;3.75;73.72
73338;BME280;61575;49.908;35.556;2024-03-02T07:47:36;99891.38;;;3.67;72.38
73338;BME280;61575;49.908;35.556;2024-03-02T07:50:38;99886.84;;;4.03;73.02
73338;BME280;61575;49.908;35.556;2024-03-02T07:53:40;99884.16;;;4.14;71.60
73338;BME280;61575;49.908;35.556;2024-03-02T07:56:42;99883.94;;;4.28;70.80
73338;BME280;61575;49.908;35.556;2024-03-02T07:59:45;99882.34;;;4.37;70.64
73338;BME280;61575;49.908;35.556;2024-03-02T08:02:47;99867.44;;;4.68;70.44
73338;BME280;61575;49.908;35.556;2024-03-02T08:05:49;99870.75;;;4.49;69.58
73338;BME280;61575;49.908;35.556;2024-03-02T08:08:51;99864.09;;;4.43;69.61
73338;BME280;61575;49.908;35.556;2024-03-02T08:11:53;99863.84;;;4.58;69.76
73338;BME280;61575;49.908;35.556;2024-03-02T08:14:55;99851.75;;;4.65;68.88
73338;BME280;61575;49.908;35.556;2024-03-02T08:17:57;99847.59;;;4.94;69.35
73338;BME280;61575;49.908;35.556;2024-03-02T08:21:00;99850.00;;;4.97;68.03
73338;BME280;61575;49.908;35.556;2024-03-02T08:24:02;99845.56;;;5.19;67.96
73338;BME280;61575;49.908;35.556;2024-03-02T08:27:04;99843.09;;;5.27;67.44
73338;BME280;61575;49.908;35.556;2024-03-02T08:30:07;99837.63;;;5.07;68.17
73338;BME280;61575;49.908;35.556;2024-03-02T08:33:10;99839.91;;;5.33;67.91
73338;BME280;61575;49.908;35.556;2024-03-02T08:36:12;99835.44;;;5.54;66.89
73338;BME280;61575;49.908;35.556;2024-03-02T08:39:14;99840.56;;;5.46;66.05
73338;BME280;61575;49.908;35.556;2024-03-02T08:42:19;99844.66;;;5.50;65.87
73338;BME280;61575;49.908;35.556;2024-03-02T08:45:21;99837.06;;;5.66;65.98
73338;BME280;61575;49.908;35.556;2024-03-02T08:48:23;99830.44;;;5.82;65.55
73338;BME280;61575;49.908;35.556;2024-03-02T08:51:25;99826.69;;;5.94;65.20
73338;BME280;61575;49.908;35.556;2024-03-02T08:58:08;99817.94;;;6.13;64.77
73338;BME280;61575;49.908;35.556;2024-03-02T09:01:10;99823.63;;;6.29;64.49
73338;BME280;61575;49.908;35.556;2024-03-02T09:04:12;99819.97;;;6.30;64.07
73338;BME280;61575;49.908;35.556;2024-03-02T09:07:15;99818.41;;;6.27;64.22
73338;BME280;61575;49.908;35.556;2024-03-02T09:10:17;99818.59;;;6.35;64.08
73338;BME280;61575;49.908;35.556;2024-03-02T09:13:19;99806.41;;;6.43;63.60
73338;BME280;61575;49.908;35.556;2024-03-02T09:16:21;99798.56;;;6.60;63.77
73338;BME280;61575;49.908;35.556;2024-03-02T09:19:23;99790.59;;;6.70;63.79
73338;BME280;61575;49.908;35.556;2024-03-02T09:22:25;99787.09;;;6.98;63.33
73338;BME280;61575;49.908;35.556;2024-03-02T09:25:27;99789.06;;;6.96;63.24
73338;BME280;61575;49.908;35.556;2024-03-02T09:28:29;99787.94;;;7.09;63.10
73338;BME280;61575;49.908;35.556;2024-03-02T09:31:31;99781.59;;;7.10;62.38
73338;BME280;61575;49.908;35.556;2024-03-02T09:34:33;99769.94;;;7.30;62.67
73338;BME280;61575;49.908;35.556;2024-03-02T09:37:35;99770.78;;;7.40;62.05
73338;BME280;61575;49.908;35.556;2024-03-02T09:40:37;99762.75;;;7.40;61.98
73338;BME280;61575;49.908;35.556;2024-03-02T09:43:40;99758.84;;;7.34;61.75
73338;BME280;61575;49.908;35.556;2024-03-02T09:46:42;99753.34;;;7.46;62.36
73338;BME280;61575;49.908;35.556;2024-03-02T09:49:46;99746.28;;;7.54;61.37
73338;BME280;61575;49.908;35.556;2024-03-02T09:52:49;99742.22;;;7.50;61.45
73338;BME280;61575;49.908;35.556;2024-03-02T09:55:53;99733.31;;;7.59;61.56
73338;BME280;61575;49.908;35.556;2024-03-02T09:58:55;99728.09;;;7.67;61.67
73338;BME280;61575;49.908;35.556;2024-03-02T10:01:59;99733.03;;;7.62;60.99
73338;BME280;61575;49.908;35.556;2024-03-02T10:05:02;99722.09;;;7.46;61.05
73338;BME280;61575;49.908;35.556;2024-03-02T10:08:06;99723.38;;;7.42;61.35
73338;BME280;61575;49.908;35.556;2024-03-02T10:11:08;99725.06;;;7.43;61.10
73338;BME280;61575;49.908;35.556;2024-03-02T10:14:11;99714.69;;;7.30;61.94
73338;BME280;61575;49.908;35.556;2024-03-02T10:17:17;99712.75;;;7.03;61.97
73338;BME280;61575;49.908;35.556;2024-03-02T10:20:23;99719.31;;;7.19;62.21
73338;BME280;61575;49.908;35.556;2024-03-02T10:23:25;99721.56;;;7.43;61.89
73338;BME280;61575;49.908;35.556;2024-03-02T10:26:29;99715.09;;;7.45;60.86
73338;BME280;61575;49.908;35.556;2024-03-02T10:29:30;99712.28;;;7.37;59.88
73338;BME280;61575;49.908;35.556;2024-03-02T10:32:33;99707.53;;;7.31;60.99
73338;BME280;61575;49.908;35.556;2024-03-02T10:35:35;99716.34;;;7.41;60.96
73338;BME280;61575;49.908;35.556;2024-03-02T10:38:40;99714.13;;;7.37;61.01
73338;BME280;61575;49.908;35.556;2024-03-02T10:41:43;99710.31;;;7.20;59.96
73338;BME280;61575;49.908;35.556;2024-03-02T10:44:47;99709.78;;;7.26;60.46
73338;BME280;61575;49.908;35.556;2024-03-02T10:47:50;99711.75;;;7.05;60.20
73338;BME280;61575;49.908;35.556;2024-03-02T10:50:52;99707.53;;;7.12;61.13
73338;BME280;61575;49.908;35.556;2024-03-02T10:53:55;99701.63;;;7.08;61.33
73338;BME280;61575;49.908;35.556;2024-03-02T10:56:59;99702.75;;;7.06;60.87
73338;BME280;61575;49.908;35.556;2024-03-02T11:00:02;99698.81;;;7.10;61.26
73338;BME280;61575;49.908;35.556;2024-03-02T11:03:06;99699.94;;;7.07;61.58
73338;BME280;61575;49.908;35.556;2024-03-02T11:06:11;99701.38;;;7.01;61.76
73338;BME280;61575;49.908;35.556;2024-03-02T11:09:16;99707.00;;;6.98;61.17
73338;BME280;61575;49.908;35.556;2024-03-02T11:12:29;99713.59;;;6.94;61.02
73338;BME280;61575;49.908;35.556;2024-03-02T11:15:34;99718.38;;;6.81;61.67
73338;BME280;61575;49.908;35.556;2024-03-02T11:18:37;99717.25;;;6.55;62.06
73338;BME280;61575;49.908;35.556;2024-03-02T11:21:40;99710.09;;;6.55;62.70
73338;BME280;61575;49.908;35.556;2024-03-02T11:24:50;99714.72;;;6.44;62.70
73338;BME280;61575;49.908;35.556;2024-03-02T11:30:55;99730.31;;;5.89;63.85
73338;BME280;61575;49.908;35.556;2024-03-02T11:34:17;99731.44;;;5.56;65.22
73338;BME280;61575;49.908;35.556;2024-03-02T11:37:20;99737.75;;;5.34;66.05
73338;BME280;61575;49.908;35.556;2024-03-02T11:40:22;99734.97;;;5.15;66.83
73338;BME280;61575;49.908;35.556;2024-03-02T11:43:25;99746.66;;;5.02;67.16
73338;BME280;61575;49.908;35.556;2024-03-02T11:46:29;99747.72;;;4.79;67.89
73338;BME280;61575;49.908;35.556;2024-03-02T11:49:39;99745.94;;;4.68;68.14
73338;BME280;61575;49.908;35.556;2024-03-02T11:52:43;99754.69;;;4.48;68.07
73338;BME280;61575;49.908;35.556;2024-03-02T11:55:45;99756.69;;;4.24;67.83
73338;BME280;61575;49.908;35.556;2024-03-02T11:58:49;99761.47;;;3.98;68.30
73338;BME280;61575;49.908;35.556;2024-03-02T12:01:54;99759.78;;;3.97;68.55
73338;BME280;61575;49.908;35.556;2024-03-02T12:04:57;99755.44;;;3.96;68.39
73338;BME280;61575;49.908;35.556;2024-03-02T12:08:00;99743.72;;;3.98;68.49
73338;BME280;61575;49.908;35.556;2024-03-02T12:11:03;99744.06;;;4.05;68.23
73338;BME280;61575;49.908;35.556;2024-03-02T12:14:10;99739.59;;;4.05;68.27
73338;BME280;61575;49.908;35.556;2024-03-02T12:17:14;99741.75;;;4.11;67.78
73338;BME280;61575;49.908;35.556;2024-03-02T12:20:18;99734.03;;;4.08;67.60
73338;BME280;61575;49.908;35.556;2024-03-02T12:23:20;99736.69;;;4.08;68.00
73338;BME280;61575;49.908;35.556;2024-03-02T12:26:22;99726.50;;;4.25;68.05
73338;BME280;61575;49.908;35.556;2024-03-02T12:29:25;99724.38;;;4.39;67.65
73338;BME280;61575;49.908;35.556;2024-03-02T12:32:28;99730.53;;;4.51;67.38
73338;BME280;61575;49.908;35.556;2024-03-02T12:35:30;99735.00;;;4.51;67.21
73338;BME280;61575;49.908;35.556;2024-03-02T12:38:32;99731.31;;;4.63;66.62
73338;BME280;61575;49.908;35.556;2024-03-02T12:41:38;99719.91;;;4.72;66.50
73338;BME280;61575;49.908;35.556;2024-03-02T12:44:41;99718.94;;;4.84;66.96
73338;BME280;61575;49.908;35.556;2024-03-02T12:47:43;99727.44;;;4.99;66.61
73338;BME280;61575;49.908;35.556;2024-03-02T12:50:45;99719.53;;;5.08;66.17
73338;BME280;61575;49.908;35.556;2024-03-02T12:54:02;99720.16;;;5.22;65.68
73338;BME280;61575;49.908;35.556;2024-03-02T12:57:05;99714.06;;;5.31;65.80
73338;BME280;61575;49.908;35.556;2024-03-02T13:00:07;99715.94;;;5.40;65.73
73338;BME280;61575;49.908;35.556;2024-03-02T13:03:13;99719.56;;;5.39;65.43
73338;BME280;61575;49.908;35.556;2024-03-02T13:06:17;99712.09;;;5.33;65.42
73338;BME280;61575;49.908;35.556;2024-03-02T13:09:19;99715.88;;;5.30;65.40
73338;BME280;61575;49.908;35.556;2024-03-02T13:12:24;99719.25;;;5.32;65.31
73338;BME280;61575;49.908;35.556;2024-03-02T13:15:26;99710.16;;;5.35;65.47
73338;BME280;61575;49.908;35.556;2024-03-02T13:18:29;99711.97;;;5.34;65.29
73338;BME280;61575;49.908;35.556;2024-03-02T13:21:31;99709.00;;;5.28;65.47
73338;BME280;61575;49.908;35.556;2024-03-02T13:24:33;99712.22;;;5.31;65.54
73338;BME280;61575;49.908;35.556;2024-03-02T13:27:35;99708.16;;;5.27;65.33
73338;BME280;61575;49.908;35.556;2024-03-02T13:30:37;99707.69;;;5.22;65.26
73338;BME280;61575;49.908;35.556;2024-03-02T13:33:39;99707.56;;;5.24;65.14
73338;BME280;61575;49.908;35.556;2024-03-02T13:36:41;99705.75;;;5.24;65.42
73338;BME280;61575;49.908;35.556;2024-03-02T13:39:43;99701.78;;;5.19;65.31
73338;BME280;61575;49.908;35.556;2024-03-02T13:42:46;99706.97;;;5.20;65.68
73338;BME280;61575;49.908;35.556;2024-03-02T13:45:49;99700.22;;;5.16;65.35
73338;BME280;61575;49.908;35.556;2024-03-02T13:48:51;99705.63;;;5.26;65.58
73338;BME280;61575;49.908;35.556;2024-03-02T13:52:00;99708.41;;;5.24;65.22
73338;BME280;61575;49.908;35.556;2024-03-02T13:55:06;99696.19;;;5.22;65.28
73338;BME280;61575;49.908;35.556;2024-03-02T13:58:09;99704.78;;;5.25;65.10
73338;BME280;61575;49.908;35.556;2024-03-02T14:01:11;99701.91;;;5.17;65.30
73338;BME280;61575;49.908;35.556;2024-03-02T14:04:14;99687.75;;;5.17;65.34
73338;BME280;61575;49.908;35.556;2024-03-02T14:07:15;99690.69;;;5.14;65.15
73338;BME280;61575;49.908;35.556;2024-03-02T14:10:18;99698.69;;;5.14;65.21
73338;BME280;61575;49.908;35.556;2024-03-02T14:13:24;99687.31;;;5.12;65.08
73338;BME280;61575;49.908;35.556;2024-03-02T14:16:27;99693.94;;;5.17;65.18
73338;BME280;61575;49.908;35.556;2024-03-02T14:19:29;99693.28;;;5.25;65.13
73338;BME280;61575;49.908;35.556;2024-03-02T14:22:31;99690.75;;;5.23;64.63
73338;BME280;61575;49.908;35.556;2024-03-02T14:25:33;99694.13;;;5.25;64.44
73338;BME280;61575;49.908;35.556;2024-03-02T14:28:35;99688.25;;;5.31;64.46
73338;BME280;61575;49.908;35.556;2024-03-02T14:31:43;99688.00;;;5.34;64.78
73338;BME280;61575;49.908;35.556;2024-03-02T14:34:45;99688.84;;;5.35;64.64
73338;BME280;61575;49.908;35.556;2024-03-02T14:37:48;99687.34;;;5.42;64.78
73338;BME280;61575;49.908;35.556;2024-03-02T14:40:50;99684.59;;;5.53;64.45
73338;BME280;61575;49.908;35.556;2024-03-02T14:43:54;99678.44;;;5.62;64.46
73338;BME280;61575;49.908;35.556;2024-03-02T14:46:57;99688.00;;;5.65;63.74
73338;BME280;61575;49.908;35.556;2024-03-02T14:50:01;99677.31;;;5.55;63.71
73338;BME280;61575;49.908;35.556;2024-03-02T14:53:10;99677.66;;;5.41;63.68
73338;BME280;61575;49.908;35.556;2024-03-02T14:56:12;99675.34;;;5.27;63.73
73338;BME280;61575;49.908;35.556;2024-03-02T14:59:17;99671.22;;;5.13;63.66
73338;BME280;61575;49.908;35.556;2024-03-02T15:02:20;99668.03;;;4.98;63.96
73338;BME280;61575;49.908;35.556;2024-03-02T15:05:22;99668.75;;;4.80;64.04
73338;BME280;61575;49.908;35.556;2024-03-02T15:08:24;99669.03;;;4.65;64.19
73338;BME280;61575;49.908;35.556;2024-03-02T15:11:26;99659.56;;;4.52;64.56
73338;BME280;61575;49.908;35.556;2024-03-02T15:14:28;99667.00;;;4.37;64.87
73338;BME280;61575;49.908;35.556;2024-03-02T15:17:30;99661.84;;;4.24;64.89
73338;BME280;61575;49.908;35.556;2024-03-02T15:20:32;99666.47;;;4.11;65.23
73338;BME280;61575;49.908;35.556;2024-03-02T15:23:34;99669.31;;;3.98;64.91
73338;BME280;61575;49.908;35.556;2024-03-02T15:26:37;99672.13;;;3.86;65.42
73338;BME280;61575;49.908;35.556;2024-03-02T15:29:39;99663.81;;;3.68;65.14
73338;BME280;61575;49.908;35.556;2024-03-02T15:32:41;99664.06;;;3.54;66.16
73338;BME280;61575;49.908;35.556;2024-03-02T15:35:43;99664.44;;;3.38;67.07
73338;BME280;61575;49.908;35.556;2024-03-02T15:38:45;99665.53;;;3.24;67.61
73338;BME280;61575;49.908;35.556;2024-03-02T15:41:47;99664.56;;;3.14;68.01
73338;BME280;61575;49.908;35.556;2024-03-02T15:44:49;99662.00;;;3.01;68.83
73338;BME280;61575;49.908;35.556;2024-03-02T15:47:51;99669.09;;;2.90;69.14
73338;BME280;61575;49.908;35.556;2024-03-02T15:50:53;99671.72;;;2.78;69.11
73338;BME280;61575;49.908;35.556;2024-03-02T15:53:55;99674.34;;;2.67;70.04
73338;BME280;61575;49.908;35.556;2024-03-02T15:56:57;99672.00;;;2.52;70.77
73338;BME280;61575;49.908;35.556;2024-03-02T16:00:00;99679.91;;;2.40;71.24
73338;BME280;61575;49.908;35.556;2024-03-02T16:03:12;99671.47;;;2.35;70.87
73338;BME280;61575;49.908;35.556;2024-03-02T16:06:14;99678.06;;;2.30;71.03
73338;BME280;61575;49.908;35.556;2024-03-02T16:09:17;99677.78;;;2.22;71.16